Time;durP1;ratioP1;P1;durP2;ratioP2;P2;SDS_P1;SDS_P2;PMS_P1;PMS_P2;Temp;Humidity;BMP_temperature;BMP_pressure;BME280_temperature;BME280_humidity;BME280_pressure;Samples;Min_cycle;Max_cycle;Signal;HPM_P1;HPM_P2
2022/08/23 08:43:50;;;;;;;6.03;2.47;;;21.90;99.90;;;;;;5071735;28;20453;-43
2022/08/23 08:46:17;;;;;;;4.32;2.67;;;21.90;99.90;;;;;;5051334;28;20045;-43
2022/08/23 08:48:44;;;;;;;5.75;2.40;;;22.10;99.90;;;;;;5052251;28;20044;-44
2022/08/23 08:51:11;;;;;;;5.80;2.15;;;22.20;99.90;;;;;;5052172;28;20132;-42
2022/08/23 08:53:39;;;;;;;5.30;2.20;;;22.40;99.90;;;;;;5030786;28;20045;-47
2022/08/23 08:56:09;;;;;;;3.85;1.95;;;22.50;99.90;;;;;;5050420;28;20033;-40
2022/08/23 08:58:42;;;;;;;5.78;2.90;;;22.60;99.90;;;;;;5047290;28;20075;-40
2022/08/23 09:01:09;;;;;;;5.47;2.38;;;22.80;99.90;;;;;;5049315;28;20112;-43
2022/08/23 09:03:37;;;;;;;6.72;2.33;;;22.90;99.90;;;;;;5049138;28;20049;-46
2022/08/23 09:06:08;;;;;;;5.78;2.30;;;23.00;99.90;;;;;;5053406;28;20119;-47
2022/08/23 09:08:39;;;;;;;4.85;2.25;;;23.00;99.90;;;;;;5047789;28;20099;-43
2022/08/23 09:11:06;;;;;;;5.18;2.40;;;23.00;99.90;;;;;;5048773;28;20049;-40
2022/08/23 09:13:32;;;;;;;5.47;2.80;;;23.10;99.90;;;;;;5047224;28;20038;-43
2022/08/23 09:15:59;;;;;;;3.85;2.10;;;23.20;99.90;;;;;;5049969;28;20038;-43
2022/08/23 09:18:26;;;;;;;4.32;2.10;;;23.20;99.90;;;;;;5048954;28;20120;-41
2022/08/23 09:20:53;;;;;;;4.05;1.90;;;23.30;99.90;;;;;;5048736;28;20045;-42
2022/08/23 09:23:20;;;;;;;4.03;2.40;;;23.40;99.90;;;;;;5044457;28;20051;-44
2022/08/23 09:25:49;;;;;;;5.85;2.47;;;23.40;99.90;;;;;;5041518;28;20041;-42
2022/08/23 09:28:16;;;;;;;11.27;2.95;;;23.40;99.90;;;;;;5042691;28;20115;-40
2022/08/23 09:30:43;;;;;;;6.22;2.20;;;23.40;99.90;;;;;;5047335;28;20041;-42
2022/08/23 09:33:10;;;;;;;10.05;2.60;;;23.50;99.90;;;;;;5046658;28;20052;-40
2022/08/23 09:35:37;;;;;;;4.95;2.20;;;23.70;99.90;;;;;;5032430;28;20403;-39
2022/08/23 09:38:06;;;;;;;7.80;2.10;;;23.80;99.90;;;;;;5048225;28;20053;-41
2022/08/23 09:40:36;;;;;;;4.72;1.65;;;23.90;99.90;;;;;;5044636;28;20115;-45
2022/08/23 13:59:48;;;;;;;5.82;0.63;;;26.50;95.40;;;;;;5091729;28;20370;-50
2022/08/23 14:02:15;;;;;;;1.30;0.52;;;26.40;96.00;;;;;;5090962;28;20051;-53
2022/08/23 14:04:42;;;;;;;2.30;0.50;;;26.50;96.00;;;;;;5091061;28;20478;-47
2022/08/23 14:07:09;;;;;;;3.65;0.60;;;26.40;96.20;;;;;;5089918;28;20048;-46
2022/08/23 14:09:36;;;;;;;1.95;0.70;;;26.40;96.50;;;;;;5073711;28;20044;-44
2022/08/23 14:12:03;;;;;;;1.23;0.40;;;26.50;97.00;;;;;;5085794;28;20043;-47
2022/08/23 14:14:35;;;;;;;0.88;0.30;;;26.40;98.20;;;;;;5070088;28;20042;-48
2022/08/23 14:17:01;;;;;;;2.50;0.30;;;26.30;98.80;;;;;;5070213;28;20041;-49
2022/08/23 14:19:30;;;;;;;2.40;0.30;;;26.30;98.70;;;;;;5070213;28;20053;-48
2022/08/23 14:22:17;;;;;;;1.42;0.38;;;26.30;97.80;;;;;;5079963;28;20041;-47
2022/08/23 14:24:43;;;;;;;0.52;0.30;;;26.50;97.40;;;;;;5069686;28;20475;-45
2022/08/23 14:27:11;;;;;;;0.63;0.30;;;26.60;96.80;;;;;;5068783;28;20502;-48
2022/08/23 14:29:37;;;;;;;0.68;0.30;;;26.60;96.70;;;;;;5089706;28;20048;-46
2022/08/23 14:32:04;;;;;;;0.93;0.32;;;26.60;96.60;;;;;;5089211;28;20048;-46
2022/08/23 14:34:31;;;;;;;1.98;0.40;;;26.70;96.40;;;;;;5089182;28;20375;-45
2022/08/23 14:36:58;;;;;;;1.08;0.40;;;26.80;96.20;;;;;;5088452;28;20040;-47
2022/08/23 14:39:44;;;;;;;0.63;0.40;;;26.80;95.90;;;;;;5089112;28;20040;-45
2022/08/23 14:42:11;;;;;;;0.90;0.50;;;26.80;95.40;;;;;;5086941;28;20040;-47
2022/08/23 14:44:38;;;;;;;4.28;0.60;;;26.80;95.20;;;;;;5084933;28;20056;-48
2022/08/23 14:47:05;;;;;;;2.92;0.50;;;26.70;95.30;;;;;;5089237;28;20048;-47
2022/08/23 14:49:32;;;;;;;1.50;0.60;;;26.70;95.50;;;;;;5092009;28;20039;-45
2022/08/23 14:51:58;;;;;;;1.42;0.50;;;26.70;95.90;;;;;;5079230;28;20041;-48
2022/08/23 14:54:25;;;;;;;1.10;0.63;;;26.80;95.40;;;;;;5075597;28;20460;-48
2022/08/23 14:56:52;;;;;;;1.20;0.50;;;26.90;95.20;;;;;;5068370;28;20368;-44
2022/08/23 14:59:19;;;;;;;1.27;0.50;;;26.80;95.00;;;;;;5080414;28;20044;-46
2022/08/23 15:01:45;;;;;;;2.25;0.50;;;26.80;94.90;;;;;;5087385;28;20097;-45
2022/08/23 15:04:12;;;;;;;1.00;0.50;;;26.80;95.20;;;;;;5069231;28;20047;-45
2022/08/23 15:06:40;;;;;;;1.10;0.57;;;26.80;95.10;;;;;;5074638;28;20216;-44
2022/08/23 15:09:27;;;;;;;1.02;0.40;;;26.80;95.00;;;;;;5079038;28;20495;-46
2022/08/23 15:11:54;;;;;;;3.38;1.15;;;26.80;95.10;;;;;;5065933;28;20510;-48
2022/08/23 15:14:41;;;;;;;1.35;0.40;;;26.80;95.40;;;;;;5060656;28;20078;-47
2022/08/23 15:17:07;;;;;;;2.67;0.50;;;26.80;95.20;;;;;;5065504;28;20052;-51
2022/08/23 15:19:34;;;;;;;0.98;0.40;;;26.90;94.70;;;;;;5062339;28;20056;-45
2022/08/23 15:22:05;;;;;;;1.17;0.40;;;26.90;94.70;;;;;;5064702;28;20037;-46
2022/08/23 15:24:44;;;;;;;0.80;0.40;;;26.90;94.20;;;;;;5062713;28;20119;-46
2022/08/23 15:27:11;;;;;;;1.70;0.60;;;27.00;94.30;;;;;;5055010;28;20051;-48
2022/08/23 15:29:38;;;;;;;1.30;0.57;;;27.00;94.20;;;;;;5054736;28;20127;-46
2022/08/23 15:32:04;;;;;;;1.73;0.50;;;26.90;94.10;;;;;;5057915;28;20048;-45
2022/08/23 15:34:34;;;;;;;1.73;0.65;;;26.80;93.90;;;;;;5068273;28;20048;-51
2022/08/23 15:37:01;;;;;;;1.20;0.50;;;26.80;93.50;;;;;;5060179;28;20056;-48
2022/08/23 15:39:27;;;;;;;2.10;0.50;;;26.80;93.70;;;;;;5062828;28;20041;-47
2022/08/23 15:41:54;;;;;;;0.90;0.50;;;26.80;93.90;;;;;;5062295;28;20083;-47
2022/08/23 15:44:21;;;;;;;2.55;0.63;;;26.90;93.80;;;;;;5055262;28;20457;-47
2022/08/23 15:46:47;;;;;;;1.30;0.70;;;27.00;94.10;;;;;;5055474;28;20487;-47
2022/08/23 15:49:15;;;;;;;1.80;0.90;;;27.00;93.80;;;;;;5060687;28;20163;-48
2022/08/23 15:51:43;;;;;;;3.55;2.30;;;27.10;93.70;;;;;;5058046;28;20041;-45
2022/08/23 15:54:10;;;;;;;3.85;0.75;;;27.10;93.20;;;;;;5055668;28;20049;-45
2022/08/23 15:56:37;;;;;;;1.35;0.60;;;27.20;93.60;;;;;;5064311;28;20049;-47
2022/08/23 15:59:04;;;;;;;1.42;0.60;;;27.20;93.50;;;;;;5073542;28;20057;-46
2022/08/23 16:01:32;;;;;;;4.10;0.70;;;27.10;93.50;;;;;;5065960;28;20517;-45
2022/08/23 16:03:59;;;;;;;1.90;0.60;;;27.10;93.50;;;;;;5060628;28;20195;-48
2022/08/23 16:06:27;;;;;;;1.83;0.60;;;27.10;93.50;;;;;;5055149;28;20371;-46
2022/08/23 16:09:00;;;;;;;1.20;0.60;;;27.10;93.40;;;;;;5065425;28;20049;-47
2022/08/23 16:11:26;;;;;;;2.35;0.60;;;27.00;93.30;;;;;;5063836;28;20045;-44
2022/08/23 16:13:53;;;;;;;3.42;0.65;;;27.00;93.40;;;;;;5054779;28;20049;-46
2022/08/23 16:16:21;;;;;;;2.05;0.70;;;27.10;93.60;;;;;;5064080;28;20040;-45
2022/08/23 16:18:48;;;;;;;1.40;0.50;;;27.20;93.60;;;;;;5053922;28;20394;-44
2022/08/23 16:21:15;;;;;;;2.00;0.73;;;27.20;93.60;;;;;;5057878;28;20106;-44
2022/08/23 16:23:42;;;;;;;2.75;0.85;;;27.30;93.60;;;;;;5071816;28;20041;-44
2022/08/23 16:26:09;;;;;;;2.95;0.80;;;27.60;93.60;;;;;;5065028;28;20044;-44
2022/08/23 16:28:39;;;;;;;1.90;0.63;;;28.00;93.20;;;;;;5053634;28;20098;-46
2022/08/23 16:31:06;;;;;;;3.88;0.85;;;28.10;92.90;;;;;;5057614;28;20446;-45
2022/08/23 16:33:33;;;;;;;4.93;1.00;;;28.10;92.90;;;;;;5055472;28;20043;-47
2022/08/23 16:36:00;;;;;;;3.10;1.00;;;28.10;92.70;;;;;;5053996;28;20044;-48
2022/08/23 16:38:27;;;;;;;1.95;1.00;;;28.10;92.90;;;;;;5061672;28;20047;-47
2022/08/23 16:40:53;;;;;;;2.13;1.10;;;28.30;92.90;;;;;;5073535;28;20493;-47
2022/08/23 16:43:20;;;;;;;3.17;0.98;;;28.50;92.60;;;;;;5063717;28;20041;-48
2022/08/23 16:45:47;;;;;;;4.13;2.10;;;28.70;92.40;;;;;;5056365;28;20040;-45
2022/08/23 16:48:14;;;;;;;2.80;1.00;;;29.00;92.30;;;;;;5061058;28;20133;-48
2022/08/23 16:50:41;;;;;;;1.58;0.80;;;29.20;91.80;;;;;;5065875;28;20098;-47
2022/08/23 16:53:07;;;;;;;2.65;0.90;;;29.30;91.30;;;;;;5055451;28;20752;-46
2022/08/23 16:55:35;;;;;;;2.15;0.77;;;29.50;91.30;;;;;;5061386;28;20116;-47
2022/08/23 16:58:02;;;;;;;2.50;0.77;;;29.70;91.10;;;;;;5065542;28;20057;-46
2022/08/23 17:00:28;;;;;;;2.72;1.00;;;29.60;91.00;;;;;;5062070;28;20044;-45
2022/08/23 17:02:55;;;;;;;2.78;0.80;;;29.30;91.10;;;;;;5061664;28;20060;-47
2022/08/23 17:05:22;;;;;;;2.53;0.82;;;28.90;91.20;;;;;;5058032;28;20036;-46
2022/08/23 17:07:49;;;;;;;2.08;0.88;;;28.50;91.60;;;;;;5073199;28;20045;-45
2022/08/23 17:10:16;;;;;;;4.45;1.00;;;28.20;92.00;;;;;;5058452;28;20036;-49
2022/08/23 17:12:43;;;;;;;1.58;0.90;;;28.00;92.10;;;;;;5055920;28;20048;-47
2022/08/23 17:15:14;;;;;;;4.82;1.10;;;27.80;92.30;;;;;;5064678;28;20534;-46
2022/08/23 17:17:45;;;;;;;3.00;1.00;;;27.60;92.50;;;;;;5064913;28;20044;-45
2022/08/23 17:20:13;;;;;;;1.83;0.85;;;27.40;92.70;;;;;;5055680;28;20099;-47
2022/08/23 17:22:41;;;;;;;2.67;1.00;;;27.30;93.00;;;;;;5058884;28;20135;-48
2022/08/23 17:25:09;;;;;;;1.50;0.95;;;27.20;93.30;;;;;;5068465;28;20124;-47
2022/08/23 17:27:36;;;;;;;3.20;1.00;;;27.20;93.40;;;;;;5065842;28;20056;-45
2022/08/23 17:30:02;;;;;;;2.20;1.10;;;27.20;93.50;;;;;;5062164;28;20068;-49
2022/08/23 17:32:29;;;;;;;2.47;0.93;;;27.30;93.50;;;;;;5067653;28;20032;-49
2022/08/23 17:34:56;;;;;;;3.65;1.30;;;27.50;93.50;;;;;;5061545;28;20495;-49
2022/08/23 17:37:22;;;;;;;2.33;1.00;;;27.90;93.20;;;;;;5060511;28;20040;-47
2022/08/23 17:39:49;;;;;;;2.40;1.10;;;28.20;93.00;;;;;;5058352;28;20041;-48
2022/08/23 17:42:20;;;;;;;2.13;1.00;;;28.20;92.70;;;;;;5060866;28;20041;-46
2022/08/23 17:44:46;;;;;;;3.72;1.33;;;27.90;92.70;;;;;;5059496;28;20049;-47
2022/08/23 17:47:14;;;;;;;2.50;1.23;;;27.70;92.90;;;;;;5058394;28;20033;-48
2022/08/23 17:49:41;;;;;;;2.65;1.20;;;27.50;93.30;;;;;;5055024;28;20110;-47
2022/08/23 17:52:07;;;;;;;4.38;1.20;;;27.40;93.30;;;;;;5062190;28;20079;-45
2022/08/23 17:54:34;;;;;;;2.58;1.40;;;27.40;93.50;;;;;;5061631;28;20048;-45
2022/08/23 17:57:03;;;;;;;3.92;1.85;;;27.60;93.30;;;;;;5053790;28;20045;-48
2022/08/23 17:59:30;;;;;;;2.25;1.25;;;27.80;93.20;;;;;;5060334;28;20052;-47
2022/08/23 18:01:57;;;;;;;3.95;1.33;;;28.10;93.10;;;;;;5056147;28;20047;-47
2022/08/23 18:04:24;;;;;;;3.78;1.35;;;28.30;92.70;;;;;;5055724;28;20051;-48
2022/08/23 18:06:51;;;;;;;3.17;1.52;;;28.20;92.70;;;;;;5061965;28;20071;-46
2022/08/23 18:09:18;;;;;;;2.55;1.50;;;28.00;93.00;;;;;;5052520;28;20073;-51
2022/08/23 18:11:46;;;;;;;2.45;1.48;;;27.80;93.20;;;;;;5057688;28;20045;-48
2022/08/23 18:14:12;;;;;;;5.15;1.45;;;27.70;93.30;;;;;;5061424;28;20040;-44
2022/08/23 18:16:39;;;;;;;3.92;1.73;;;27.60;93.30;;;;;;5055440;28;20045;-47
2022/08/23 18:19:09;;;;;;;5.32;1.40;;;27.30;93.60;;;;;;5058686;28;20041;-47
2022/08/23 18:21:38;;;;;;;6.00;1.40;;;27.10;93.90;;;;;;5055523;28;20476;-47
2022/08/23 18:24:05;;;;;;;3.05;1.60;;;26.90;94.10;;;;;;5068261;28;20098;-46
2022/08/23 18:29:17;;;;;;;4.65;1.70;;;26.50;94.50;;;;;;5056868;28;20033;-48
2022/08/23 18:31:44;;;;;;;2.72;1.55;;;26.10;94.80;;;;;;5072009;28;20157;-48
2022/08/23 18:34:11;;;;;;;5.55;1.50;;;25.90;95.10;;;;;;5061795;28;20167;-47
2022/08/23 18:36:38;;;;;;;2.85;1.58;;;25.70;95.40;;;;;;5059855;28;20398;-48
2022/08/23 18:39:05;;;;;;;2.20;1.42;;;25.50;95.70;;;;;;5055310;28;20048;-46
2022/08/23 18:41:32;;;;;;;6.03;1.60;;;25.30;95.90;;;;;;5052509;28;20387;-48
2022/08/23 18:43:58;;;;;;;5.15;1.77;;;25.20;96.10;;;;;;5077664;28;20036;-47
2022/08/23 18:46:31;;;;;;;4.60;1.83;;;25.10;96.50;;;;;;5074584;28;20102;-47
2022/08/23 18:48:59;;;;;;;3.13;1.73;;;25.00;96.60;;;;;;5056649;28;20049;-47
2022/08/23 18:51:26;;;;;;;5.13;1.88;;;24.90;96.90;;;;;;5065287;28;20052;-48
2022/08/23 18:53:52;;;;;;;4.82;1.95;;;24.70;97.20;;;;;;5059392;28;20045;-45
2022/08/23 18:56:19;;;;;;;3.40;2.10;;;24.60;97.40;;;;;;5062755;28;20036;-46
2022/08/23 18:58:46;;;;;;;4.53;1.95;;;24.40;97.50;;;;;;5056115;28;20104;-48
2022/08/23 19:01:14;;;;;;;2.80;1.63;;;24.40;97.80;;;;;;5064160;28;20399;-45
2022/08/23 19:03:41;;;;;;;4.53;2.05;;;24.20;98.00;;;;;;5063355;28;20041;-48
2022/08/23 19:06:07;;;;;;;3.00;1.83;;;24.10;98.10;;;;;;5060933;28;20087;-49
2022/08/23 19:08:34;;;;;;;4.82;2.40;;;24.00;98.30;;;;;;5059743;28;20479;-45
2022/08/23 19:11:01;;;;;;;4.00;2.15;;;23.90;98.40;;;;;;5063331;28;20055;-47
2022/08/23 19:13:28;;;;;;;2.80;1.98;;;23.80;98.80;;;;;;5059266;28;20041;-46
2022/08/23 19:15:54;;;;;;;4.32;2.13;;;23.70;98.90;;;;;;5067292;28;20044;-45
2022/08/23 19:18:21;;;;;;;4.32;2.60;;;23.60;99.20;;;;;;5058688;28;20503;-47
2022/08/23 19:20:48;;;;;;;3.65;2.30;;;23.60;99.30;;;;;;5058030;28;20048;-51
2022/08/23 19:23:15;;;;;;;3.03;2.25;;;23.50;99.50;;;;;;5053727;28;20048;-47
2022/08/23 19:25:41;;;;;;;3.78;2.08;;;23.50;99.60;;;;;;5055312;28;20491;-47
2022/08/23 19:28:08;;;;;;;3.58;2.45;;;23.50;99.70;;;;;;5055140;28;20037;-49
2022/08/23 19:30:35;;;;;;;3.33;2.10;;;23.40;99.80;;;;;;5054984;28;20043;-46
2022/08/23 19:33:02;;;;;;;3.60;2.40;;;23.40;99.90;;;;;;5055168;28;20053;-48
2022/08/23 19:35:29;;;;;;;3.30;2.05;;;23.40;99.90;;;;;;5055126;28;20513;-47
2022/08/23 19:37:56;;;;;;;2.72;1.90;;;23.40;99.90;;;;;;5055008;28;20045;-49
2022/08/23 19:40:23;;;;;;;3.60;1.70;;;23.40;99.90;;;;;;5060921;28;20041;-44
2022/08/23 19:42:49;;;;;;;3.67;1.80;;;23.30;99.90;;;;;;5058135;28;20067;-46
2022/08/23 19:45:18;;;;;;;6.00;1.75;;;23.30;99.90;;;;;;5060839;28;20080;-45
2022/08/23 19:47:45;;;;;;;2.25;1.40;;;23.20;99.90;;;;;;5057893;28;20075;-45
2022/08/23 19:50:12;;;;;;;2.45;1.20;;;23.20;99.90;;;;;;5063299;28;20124;-47
2022/08/23 19:52:39;;;;;;;2.80;1.30;;;23.10;99.90;;;;;;5059151;28;20132;-45
2022/08/23 19:55:06;;;;;;;3.45;1.40;;;23.10;99.90;;;;;;5065826;28;20044;-48
2022/08/23 19:57:33;;;;;;;1.75;1.20;;;23.10;99.90;;;;;;5055271;28;20033;-46
2022/08/23 20:00:00;;;;;;;4.10;1.40;;;23.10;99.90;;;;;;5068857;28;20472;-47
2022/08/23 20:02:31;;;;;;;2.60;1.30;;;23.10;99.90;;;;;;5065551;28;20036;-49
2022/08/23 20:04:57;;;;;;;3.83;1.48;;;23.10;99.90;;;;;;5076808;28;20063;-46
2022/08/23 20:07:24;;;;;;;2.47;1.27;;;23.10;99.90;;;;;;5061404;28;20029;-46
2022/08/23 20:09:51;;;;;;;2.30;1.42;;;23.10;99.90;;;;;;5055087;28;20044;-51
2022/08/23 20:12:18;;;;;;;3.60;1.48;;;23.10;99.90;;;;;;5060385;28;20036;-48
2022/08/23 20:14:45;;;;;;;2.65;1.50;;;23.10;99.90;;;;;;5055874;28;20877;-46
2022/08/23 20:17:12;;;;;;;3.45;1.60;;;23.20;99.90;;;;;;5065051;28;20048;-49
2022/08/23 20:19:40;;;;;;;1.77;1.33;;;23.20;99.90;;;;;;5054900;28;20044;-51
2022/08/23 20:24:52;;;;;;;4.25;1.52;;;23.20;99.90;;;;;;5058049;28;20056;-46
2022/08/23 20:27:19;;;;;;;2.13;1.35;;;23.20;99.90;;;;;;5057303;28;20115;-46
2022/08/23 20:29:57;;;;;;;4.53;1.40;;;23.10;99.90;;;;;;5061538;28;20039;-49
2022/08/23 20:32:25;;;;;;;2.75;1.45;;;23.20;99.90;;;;;;5065044;28;20161;-46
2022/08/23 20:34:52;;;;;;;2.00;1.60;;;23.20;99.90;;;;;;5060306;28;20041;-46
2022/08/23 20:37:18;;;;;;;4.03;1.80;;;23.10;99.90;;;;;;5051924;28;20041;-48
2022/08/23 20:39:45;;;;;;;3.03;2.08;;;23.10;99.90;;;;;;5065610;28;20041;-48
2022/08/23 20:42:12;;;;;;;3.58;2.22;;;23.00;99.90;;;;;;5066872;28;20049;-51
2022/08/23 20:44:39;;;;;;;4.28;1.98;;;23.00;99.90;;;;;;5064775;28;20040;-47
2022/08/23 20:47:05;;;;;;;3.08;2.05;;;22.90;99.90;;;;;;5054233;28;20048;-51
2022/08/23 20:49:32;;;;;;;3.33;2.08;;;22.90;99.90;;;;;;5060487;28;20046;-46
2022/08/23 20:51:59;;;;;;;3.33;2.08;;;22.80;99.90;;;;;;5072384;28;20098;-47
2022/08/23 20:54:26;;;;;;;3.35;2.10;;;22.80;99.90;;;;;;5067277;28;20041;-45
2022/08/23 20:56:52;;;;;;;4.72;2.10;;;22.80;99.90;;;;;;5057827;28;20036;-46
2022/08/23 20:59:19;;;;;;;3.15;2.20;;;22.80;99.90;;;;;;5073020;28;20419;-47
2022/08/23 21:01:46;;;;;;;2.97;2.13;;;22.80;99.90;;;;;;5058934;28;20037;-46
2022/08/23 21:04:13;;;;;;;4.72;2.40;;;22.80;99.90;;;;;;5053995;28;20107;-45
2022/08/23 21:06:46;;;;;;;3.55;2.25;;;22.80;99.90;;;;;;5065245;28;20041;-45
2022/08/23 21:09:15;;;;;;;3.20;2.22;;;22.80;99.90;;;;;;5055541;28;20102;-45
2022/08/23 21:11:42;;;;;;;3.58;2.60;;;22.70;99.90;;;;;;5067773;28;20094;-47
2022/08/23 21:14:09;;;;;;;4.38;2.70;;;22.70;99.90;;;;;;5057439;28;20029;-48
2022/08/23 21:16:36;;;;;;;5.05;2.70;;;22.70;99.90;;;;;;5055853;28;20036;-46
2022/08/23 21:19:03;;;;;;;4.47;2.20;;;22.80;99.90;;;;;;5064450;28;20044;-48
2022/08/23 21:21:30;;;;;;;3.63;2.00;;;22.70;99.90;;;;;;5070171;28;20037;-45
2022/08/23 21:23:56;;;;;;;4.78;1.95;;;22.70;99.90;;;;;;5053613;28;20048;-49
2022/08/23 21:26:23;;;;;;;3.85;1.95;;;22.70;99.90;;;;;;5054091;28;20041;-50
2022/08/23 21:28:50;;;;;;;4.75;2.03;;;22.70;99.90;;;;;;5070208;28;20037;-47
2022/08/23 21:31:17;;;;;;;4.10;1.90;;;22.80;99.90;;;;;;5061054;28;20069;-47
2022/08/23 21:33:43;;;;;;;3.22;2.08;;;22.80;99.90;;;;;;5053648;28;20060;-48
2022/08/23 21:36:10;;;;;;;3.22;2.05;;;22.80;99.90;;;;;;5053526;28;20138;-47
2022/08/23 21:38:37;;;;;;;3.05;1.90;;;22.80;99.90;;;;;;5053431;28;20045;-47
2022/08/23 21:41:04;;;;;;;6.25;2.08;;;22.70;99.90;;;;;;5059817;28;20075;-46
2022/08/23 21:43:31;;;;;;;3.58;1.90;;;22.70;99.90;;;;;;5053403;28;20037;-45
2022/08/23 21:45:58;;;;;;;4.53;1.70;;;22.70;99.90;;;;;;5063189;28;20115;-47
2022/08/23 21:48:25;;;;;;;4.63;2.00;;;22.60;99.90;;;;;;5059516;28;20102;-45
2022/08/23 21:50:51;;;;;;;4.95;2.00;;;22.60;99.90;;;;;;5054398;28;20487;-46
2022/08/23 21:53:18;;;;;;;4.35;2.13;;;22.60;99.90;;;;;;5061226;28;20075;-45
2022/08/23 21:55:45;;;;;;;4.28;1.90;;;22.60;99.90;;;;;;5061487;28;20052;-45
2022/08/23 21:58:12;;;;;;;2.78;1.90;;;22.60;99.90;;;;;;5056057;28;20065;-44
2022/08/23 22:00:40;;;;;;;4.50;2.10;;;22.50;99.90;;;;;;5067046;28;20056;-47
2022/08/23 22:03:06;;;;;;;4.03;2.30;;;22.50;99.90;;;;;;5063333;28;20044;-48
2022/08/23 22:05:33;;;;;;;4.70;2.22;;;22.50;99.90;;;;;;5056246;28;20095;-50
2022/08/23 22:08:00;;;;;;;5.22;2.67;;;22.40;99.90;;;;;;5053619;28;20045;-47
2022/08/23 22:10:27;;;;;;;5.40;2.40;;;22.50;99.90;;;;;;5058569;28;20044;-45
2022/08/23 22:12:54;;;;;;;4.03;2.40;;;22.40;99.90;;;;;;5060412;28;20052;-47
2022/08/23 22:15:21;;;;;;;4.43;2.47;;;22.40;99.90;;;;;;5072314;28;20044;-46
2022/08/23 22:17:47;;;;;;;5.88;3.13;;;22.40;99.90;;;;;;5062109;28;20519;-46
2022/08/23 22:20:14;;;;;;;4.40;2.78;;;22.40;99.90;;;;;;5061263;28;20365;-46
2022/08/23 22:22:42;;;;;;;4.43;3.42;;;22.30;99.90;;;;;;5056793;28;20045;-45
2022/08/23 22:25:10;;;;;;;4.43;3.05;;;22.30;99.90;;;;;;5055758;28;20041;-47
2022/08/23 22:27:36;;;;;;;4.80;3.00;;;22.20;99.90;;;;;;5065427;28;20037;-46
2022/08/23 22:30:04;;;;;;;4.53;2.80;;;22.20;99.90;;;;;;5063003;28;20049;-51
2022/08/23 22:32:30;;;;;;;3.60;2.67;;;22.20;99.90;;;;;;5056171;28;20049;-48
2022/08/23 22:34:57;;;;;;;3.85;2.53;;;22.20;99.90;;;;;;5056744;28;20047;-51
2022/08/23 22:37:24;;;;;;;4.82;2.70;;;22.20;99.90;;;;;;5067166;28;20039;-45
2022/08/23 22:39:51;;;;;;;4.57;2.38;;;22.20;99.90;;;;;;5064594;28;20086;-45
2022/08/23 22:42:18;;;;;;;5.90;2.50;;;22.20;99.90;;;;;;5059327;28;20045;-45
2022/08/23 22:44:44;;;;;;;3.83;2.22;;;22.20;99.90;;;;;;5062985;28;20048;-48
2022/08/23 22:47:11;;;;;;;5.68;2.60;;;22.20;99.90;;;;;;5062195;28;20029;-47
2022/08/23 22:49:38;;;;;;;3.90;2.72;;;22.10;99.90;;;;;;5064597;28;20041;-45
2022/08/23 22:52:05;;;;;;;4.05;2.35;;;22.00;99.90;;;;;;5062331;28;20044;-48
2022/08/23 22:54:31;;;;;;;4.25;2.75;;;22.00;99.90;;;;;;5064704;28;20037;-46
2022/08/23 22:56:58;;;;;;;3.53;2.47;;;22.00;99.90;;;;;;5066837;28;20417;-46
2022/08/23 22:59:25;;;;;;;3.53;2.47;;;21.90;99.90;;;;;;5065519;28;20044;-48
2022/08/23 23:01:58;;;;;;;3.83;2.58;;;21.90;99.90;;;;;;5064143;28;20116;-49
2022/08/23 23:04:28;;;;;;;5.18;3.33;;;21.90;99.90;;;;;;5065814;28;20041;-48
2022/08/23 23:06:55;;;;;;;4.70;2.65;;;21.90;99.90;;;;;;5061551;28;20095;-44
2022/08/23 23:09:22;;;;;;;4.03;2.65;;;21.90;99.90;;;;;;5065064;28;20052;-46
2022/08/23 23:11:50;;;;;;;7.03;2.83;;;21.80;99.90;;;;;;5065480;28;20044;-47
2022/08/23 23:14:17;;;;;;;7.07;2.75;;;21.80;99.90;;;;;;5063401;28;20060;-50
2022/08/23 23:16:44;;;;;;;4.85;2.80;;;21.70;99.90;;;;;;5064236;28;20036;-50
2022/08/23 23:21:56;;;;;;;6.15;2.95;;;21.70;99.90;;;;;;5065228;28;20060;-45
2022/08/23 23:24:23;;;;;;;5.60;2.60;;;21.70;99.90;;;;;;5064242;28;20101;-44
2022/08/23 23:26:50;;;;;;;5.32;2.75;;;21.80;99.90;;;;;;5063365;28;20040;-45
2022/08/23 23:29:16;;;;;;;4.53;2.67;;;21.70;99.90;;;;;;5067125;28;20032;-45
2022/08/23 23:31:44;;;;;;;3.47;2.60;;;21.70;99.90;;;;;;5063918;28;20048;-45
2022/08/23 23:34:10;;;;;;;3.40;2.53;;;21.70;99.90;;;;;;5063925;28;20487;-47
2022/08/23 23:36:37;;;;;;;4.15;2.83;;;21.60;99.90;;;;;;5062848;28;20044;-45
2022/08/23 23:39:04;;;;;;;4.15;2.97;;;21.60;99.90;;;;;;5061790;28;20122;-45
2022/08/23 23:41:31;;;;;;;4.63;2.90;;;21.60;99.90;;;;;;5063438;28;20380;-45
2022/08/23 23:43:57;;;;;;;4.60;2.85;;;21.50;99.90;;;;;;5064288;28;20086;-46
2022/08/23 23:46:24;;;;;;;4.40;2.85;;;21.60;99.90;;;;;;5062879;28;20037;-45
2022/08/23 23:48:51;;;;;;;4.68;2.75;;;21.60;99.90;;;;;;5065170;28;20036;-45
2022/08/23 23:51:18;;;;;;;5.32;3.10;;;21.50;99.90;;;;;;5065423;28;20487;-46
2022/08/23 23:53:44;;;;;;;4.32;2.63;;;21.50;99.90;;;;;;5063279;28;20479;-45
2022/08/23 23:56:11;;;;;;;4.47;2.60;;;21.60;99.90;;;;;;5065797;28;20041;-46
2022/08/23 23:58:38;;;;;;;7.45;3.42;;;21.60;99.90;;;;;;5062450;28;20105;-45
